createdAt,value
2019-05-16T00:02:08.936Z,6.40
2019-05-16T00:04:38.234Z,6.87
2019-05-16T00:07:10.680Z,6.53
2019-05-16T00:09:41.187Z,7.07
2019-05-16T00:12:10.674Z,6.07
2019-05-16T00:14:40.021Z,7.20
2019-05-16T00:17:10.837Z,6.40
2019-05-16T00:19:41.555Z,6.87
2019-05-16T00:22:11.075Z,6.40
2019-05-16T00:24:41.430Z,6.63
2019-05-16T00:27:14.447Z,6.53
2019-05-16T00:29:48.621Z,6.33
2019-05-16T00:32:19.145Z,6.83
2019-05-16T00:34:48.708Z,6.47
2019-05-16T00:37:19.201Z,6.73
2019-05-16T00:39:49.736Z,7.07
2019-05-16T00:42:20.534Z,6.93
2019-05-16T00:44:50.951Z,6.40
2019-05-16T00:47:20.354Z,6.83
2019-05-16T00:49:49.681Z,6.90
2019-05-16T00:52:20.172Z,6.50
2019-05-16T00:54:50.263Z,6.23
2019-05-16T00:57:20.823Z,6.80
2019-05-16T00:59:51.148Z,6.87
2019-05-16T01:02:19.655Z,7.37
2019-05-16T01:04:50.126Z,7.40
2019-05-16T01:07:20.639Z,6.97
2019-05-16T01:09:51.443Z,7.13
2019-05-16T01:12:20.957Z,6.13
2019-05-16T01:14:53.298Z,6.80
2019-05-16T01:17:22.676Z,6.93
2019-05-16T01:19:54.747Z,6.27
2019-05-16T01:22:25.154Z,7.13
2019-05-16T01:24:55.686Z,6.30
2019-05-16T01:27:27.799Z,6.77
2019-05-16T01:29:59.947Z,6.77
2019-05-16T01:32:32.107Z,6.20
2019-05-16T01:35:00.947Z,6.70
2019-05-16T01:37:32.405Z,6.73
2019-05-16T01:40:01.782Z,7.23
2019-05-16T01:42:33.503Z,6.67
2019-05-16T01:45:03.968Z,7.10
2019-05-16T01:47:34.334Z,6.67
2019-05-16T01:50:05.671Z,6.67
2019-05-16T01:52:34.173Z,6.57
2019-05-16T01:55:04.718Z,6.40
2019-05-16T01:57:35.310Z,6.87
2019-05-16T02:00:08.648Z,6.10
2019-05-16T02:02:38.685Z,6.23
2019-05-16T02:05:09.281Z,6.67
2019-05-16T02:07:38.950Z,6.33
2019-05-16T02:10:11.737Z,6.43
2019-05-16T02:12:43.382Z,6.47
2019-05-16T02:15:18.180Z,6.30
2019-05-16T02:17:48.563Z,7.00
2019-05-16T02:20:19.404Z,6.33
2019-05-16T02:22:49.712Z,6.40
2019-05-16T02:25:20.425Z,7.10
2019-05-16T02:27:50.935Z,7.03
2019-05-16T02:30:21.919Z,6.60
2019-05-16T02:32:52.656Z,6.37
2019-05-16T02:35:22.083Z,6.63
2019-05-16T02:37:55.229Z,7.07
2019-05-16T02:40:25.775Z,7.03
2019-05-16T02:42:56.373Z,6.50
2019-05-16T02:45:32.142Z,6.37
2019-05-16T02:48:01.226Z,6.67
2019-05-16T02:50:32.022Z,7.60
2019-05-16T02:53:02.317Z,7.43
2019-05-16T02:55:31.790Z,7.27
2019-05-16T02:58:02.740Z,7.40
2019-05-16T03:00:42.018Z,7.40
2019-05-16T03:03:11.984Z,7.47
2019-05-16T03:05:44.095Z,6.90
2019-05-16T03:08:14.193Z,7.57
2019-05-16T03:10:43.810Z,6.80
2019-05-16T03:13:14.109Z,7.57
2019-05-16T03:15:47.131Z,6.83
2019-05-16T03:18:21.353Z,7.47
2019-05-16T03:20:52.952Z,7.47
2019-05-16T03:23:22.431Z,7.67
2019-05-16T03:25:54.704Z,7.53
2019-05-16T03:28:27.094Z,7.70
2019-05-16T03:30:57.503Z,7.53
2019-05-16T03:33:39.096Z,7.53
2019-05-16T03:36:03.999Z,8.00
2019-05-16T03:38:31.119Z,7.70
2019-05-16T03:41:01.750Z,7.90
2019-05-16T03:43:32.721Z,7.53
2019-05-16T03:46:03.385Z,7.87
2019-05-16T03:48:40.658Z,7.87
2019-05-16T03:51:11.417Z,7.97
2019-05-16T03:53:40.475Z,7.33
2019-05-16T03:56:11.338Z,7.67
2019-05-16T03:58:41.786Z,8.70
2019-05-16T04:01:11.727Z,7.50
2019-05-16T04:03:42.174Z,7.77
2019-05-16T04:06:12.911Z,8.07
2019-05-16T04:08:43.509Z,8.07
2019-05-16T04:11:13.806Z,8.13
2019-05-16T04:13:43.222Z,8.47
2019-05-16T04:16:13.580Z,8.20
2019-05-16T04:18:42.980Z,8.10
2019-05-16T04:21:17.422Z,8.40
2019-05-16T04:23:46.038Z,7.63
2019-05-16T04:26:15.420Z,7.83
2019-05-16T04:28:45.808Z,8.50
2019-05-16T04:31:15.209Z,8.43
2019-05-16T04:33:45.787Z,7.73
2019-05-16T04:36:16.189Z,7.20
2019-05-16T04:38:46.989Z,8.37
2019-05-16T04:41:20.702Z,8.33
2019-05-16T04:43:50.606Z,8.30
2019-05-16T04:46:21.625Z,8.07
2019-05-16T04:48:52.082Z,7.97
2019-05-16T04:51:24.160Z,7.87
2019-05-16T04:53:53.745Z,7.90
2019-05-16T04:56:24.919Z,8.60
2019-05-16T04:58:54.456Z,7.83
2019-05-16T05:01:25.050Z,9.10
2019-05-16T05:04:06.289Z,8.20
2019-05-16T05:06:25.457Z,8.13
2019-05-16T05:09:03.306Z,7.80
2019-05-16T05:11:30.653Z,8.37
2019-05-16T05:14:00.950Z,7.73
2019-05-16T05:16:30.782Z,8.47
2019-05-16T05:19:01.449Z,8.13
2019-05-16T05:21:31.488Z,8.53
2019-05-16T05:24:03.192Z,8.40
2019-05-16T05:26:31.967Z,8.17
2019-05-16T05:29:02.567Z,7.93
2019-05-16T05:31:35.167Z,8.63
2019-05-16T05:34:03.263Z,9.33
2019-05-16T05:36:33.759Z,8.97
2019-05-16T05:39:11.084Z,8.43
2019-05-16T05:41:35.645Z,7.93
2019-05-16T05:44:07.248Z,7.83
2019-05-16T05:46:39.927Z,8.90
2019-05-16T05:49:10.487Z,7.93
2019-05-16T05:51:40.609Z,8.07
2019-05-16T05:54:11.301Z,8.03
2019-05-16T05:56:42.106Z,7.57
2019-05-16T05:59:12.544Z,8.30
2019-05-16T06:01:43.770Z,7.80
2019-05-16T06:04:14.379Z,8.53
2019-05-16T06:06:45.041Z,8.43
2019-05-16T06:09:26.381Z,7.83
2019-05-16T06:11:46.741Z,8.60
2019-05-16T06:14:21.020Z,7.93
2019-05-16T06:16:51.101Z,7.57
2019-05-16T06:19:20.582Z,7.60
2019-05-16T06:21:50.977Z,8.27
2019-05-16T06:24:20.564Z,7.87
2019-05-16T06:26:50.468Z,7.57
2019-05-16T06:29:22.819Z,7.33
2019-05-16T06:31:52.608Z,8.00
2019-05-16T06:34:22.927Z,7.70
2019-05-16T06:36:53.529Z,7.37
2019-05-16T06:39:37.514Z,7.60
2019-05-16T06:42:00.410Z,7.47
2019-05-16T06:44:30.881Z,7.93
2019-05-16T06:47:15.792Z,7.60
2019-05-16T06:49:33.688Z,7.17
2019-05-16T06:52:04.200Z,8.00
2019-05-16T06:54:33.569Z,6.57
2019-05-16T06:57:04.386Z,7.17
2019-05-16T06:59:33.785Z,7.13
2019-05-16T07:02:05.289Z,7.30
2019-05-16T07:04:35.663Z,7.27
2019-05-16T07:07:09.497Z,8.17
2019-05-16T07:09:41.779Z,7.27
2019-05-16T07:12:11.307Z,6.77
2019-05-16T07:14:41.819Z,7.27
2019-05-16T07:17:11.514Z,6.70
2019-05-16T07:19:43.447Z,7.33
2019-05-16T07:22:13.261Z,6.93
2019-05-16T07:24:43.963Z,7.20
2019-05-16T07:27:13.325Z,7.33
2019-05-16T07:29:43.855Z,7.73
2019-05-16T07:32:13.319Z,7.00
2019-05-16T07:34:42.289Z,7.63
2019-05-16T07:37:11.650Z,6.93
2019-05-16T07:39:42.218Z,6.50
2019-05-16T07:42:11.729Z,8.43
2019-05-16T07:44:42.367Z,7.50
2019-05-16T07:47:11.923Z,7.10
2019-05-16T07:49:43.764Z,7.33
2019-05-16T07:52:14.625Z,7.50
2019-05-16T07:54:44.906Z,6.90
2019-05-16T07:57:20.474Z,8.10
2019-05-16T07:59:52.563Z,7.53
2019-05-16T08:02:22.129Z,7.70
2019-05-16T08:04:51.599Z,8.13
2019-05-16T08:07:22.111Z,8.93
2019-05-16T08:09:52.623Z,7.60
2019-05-16T08:12:25.977Z,8.00
2019-05-16T08:14:53.439Z,8.40
2019-05-16T08:17:24.464Z,8.10
2019-05-16T08:19:53.878Z,8.57
2019-05-16T08:22:22.880Z,8.23
2019-05-16T08:24:54.544Z,7.90
2019-05-16T08:27:23.935Z,8.40
2019-05-16T08:29:54.415Z,7.73
2019-05-16T08:32:24.914Z,8.80
2019-05-16T08:34:53.756Z,8.20
2019-05-16T08:37:36.843Z,8.50
2019-05-16T08:39:56.345Z,8.83
2019-05-16T08:42:26.743Z,8.73
2019-05-16T08:44:57.149Z,8.37
2019-05-16T08:47:27.553Z,8.37
2019-05-16T08:50:00.679Z,7.83
2019-05-16T08:52:31.551Z,7.90
2019-05-16T08:55:04.069Z,8.33
2019-05-16T08:57:33.637Z,7.93
2019-05-16T09:00:05.815Z,8.80
2019-05-16T09:02:36.831Z,8.27
2019-05-16T09:05:12.999Z,8.43
2019-05-16T09:07:40.097Z,8.27
2019-05-16T09:10:45.936Z,8.00
2019-05-16T09:12:47.328Z,8.30
2019-05-16T09:15:17.165Z,8.60
2019-05-16T09:17:48.408Z,8.13
2019-05-16T09:20:19.131Z,7.90
2019-05-16T09:22:49.623Z,8.20
2019-05-16T09:25:19.110Z,8.03
2019-05-16T09:27:48.468Z,8.63
2019-05-16T09:30:19.008Z,7.90
2019-05-16T09:32:49.490Z,7.97
2019-05-16T09:35:21.357Z,8.73
2019-05-16T09:37:52.289Z,8.53
2019-05-16T09:40:21.895Z,8.33
2019-05-16T09:42:50.379Z,8.80
2019-05-16T09:45:20.472Z,7.83
2019-05-16T09:47:51.097Z,8.00
2019-05-16T09:50:22.105Z,7.87
2019-05-16T09:52:56.576Z,8.50
2019-05-16T09:55:27.084Z,7.87
2019-05-16T09:57:58.973Z,7.63
2019-05-16T10:00:29.533Z,6.93
2019-05-16T10:02:59.265Z,7.67
2019-05-16T10:05:29.761Z,7.70
2019-05-16T10:07:59.337Z,7.70
2019-05-16T10:10:28.855Z,7.50
2019-05-16T10:12:59.310Z,6.80
2019-05-16T10:15:30.026Z,7.00
2019-05-16T10:18:00.534Z,7.20
2019-05-16T10:20:30.939Z,7.40
2019-05-16T10:23:01.557Z,10.43
2019-05-16T10:25:37.534Z,7.47
2019-05-16T10:28:06.076Z,7.27
2019-05-16T10:30:37.651Z,7.27
2019-05-16T10:33:07.197Z,6.33
2019-05-16T10:35:39.206Z,6.60
2019-05-16T10:38:08.626Z,6.80
2019-05-16T10:40:37.458Z,6.53
2019-05-16T10:43:07.478Z,6.73
2019-05-16T10:45:37.409Z,6.37
2019-05-16T10:48:07.908Z,6.63
2019-05-16T10:50:38.329Z,7.37
2019-05-16T10:53:27.955Z,7.03
2019-05-16T10:55:39.960Z,7.17
2019-05-16T10:58:11.513Z,6.47
2019-05-16T11:01:07.630Z,6.73
2019-05-16T11:03:12.083Z,6.23
2019-05-16T11:05:42.421Z,5.73
2019-05-16T11:08:14.443Z,5.70
2019-05-16T11:10:47.486Z,5.40
2019-05-16T11:13:21.050Z,5.33
2019-05-16T11:15:50.351Z,5.77
2019-05-16T11:18:21.347Z,7.97
2019-05-16T11:20:52.475Z,7.27
2019-05-16T11:23:23.825Z,8.27
2019-05-16T11:25:55.311Z,7.93
2019-05-16T11:28:25.686Z,7.33
2019-05-16T11:31:02.913Z,6.10
2019-05-16T11:33:28.577Z,5.87
2019-05-16T11:35:58.985Z,6.10
2019-05-16T11:38:30.641Z,5.87
2019-05-16T11:41:00.268Z,6.00
2019-05-16T11:43:30.614Z,5.27
2019-05-16T11:46:01.149Z,5.80
2019-05-16T11:48:30.631Z,6.10
2019-05-16T11:51:01.001Z,5.63
2019-05-16T11:53:31.658Z,5.73
2019-05-16T11:56:02.371Z,5.53
2019-05-16T11:58:32.848Z,6.20
2019-05-16T12:01:07.278Z,19.97
2019-05-16T12:03:37.542Z,13.17
2019-05-16T12:06:10.476Z,8.63
2019-05-16T12:08:38.472Z,5.80
2019-05-16T12:11:07.906Z,4.80
2019-05-16T12:13:38.309Z,5.00
2019-05-16T12:16:08.716Z,4.50
2019-05-16T12:18:37.510Z,4.17
2019-05-16T12:21:07.991Z,4.70
2019-05-16T12:23:37.712Z,5.20
2019-05-16T12:26:08.240Z,4.97
2019-05-16T12:28:38.776Z,4.93
2019-05-16T12:31:07.592Z,14.17
2019-05-16T12:33:38.073Z,4.37
2019-05-16T12:36:08.821Z,4.00
2019-05-16T12:38:39.331Z,4.37
2019-05-16T12:41:08.796Z,3.47
2019-05-16T12:43:48.832Z,3.90
2019-05-16T12:46:09.815Z,3.83
2019-05-16T12:48:42.102Z,3.93
2019-05-16T12:51:14.701Z,3.70
2019-05-16T12:53:47.710Z,4.13
2019-05-16T12:56:17.518Z,3.40
2019-05-16T12:58:50.647Z,3.70
2019-05-16T13:01:29.515Z,3.07
2019-05-16T13:03:52.678Z,3.37
2019-05-16T13:06:23.548Z,3.10
2019-05-16T13:08:54.220Z,3.50
2019-05-16T13:11:26.933Z,4.00
2019-05-16T13:14:03.301Z,3.30
2019-05-16T13:16:28.303Z,3.43
2019-05-16T13:18:57.565Z,2.53
2019-05-16T13:21:28.233Z,2.80
2019-05-16T13:23:58.764Z,3.30
2019-05-16T13:26:28.278Z,2.80
2019-05-16T13:28:58.937Z,3.00
2019-05-16T13:31:29.560Z,2.70
2019-05-16T13:34:01.645Z,2.87
2019-05-16T13:36:32.019Z,2.80
2019-05-16T13:39:07.821Z,2.60
2019-05-16T13:41:37.837Z,2.30
2019-05-16T13:44:18.351Z,2.40
2019-05-16T13:46:41.816Z,2.80
2019-05-16T13:49:12.836Z,4.00
2019-05-16T13:51:44.367Z,4.37
2019-05-16T13:54:14.697Z,4.00
2019-05-16T13:56:44.128Z,4.50
2019-05-16T13:59:13.588Z,4.00
2019-05-16T14:01:43.083Z,3.97
2019-05-16T14:04:12.502Z,4.57
2019-05-16T14:06:41.894Z,5.03
2019-05-16T14:09:13.827Z,4.50
2019-05-16T14:11:43.283Z,4.30
2019-05-16T14:14:13.645Z,4.30
2019-05-16T14:16:43.016Z,4.60
2019-05-16T14:19:13.692Z,5.27
2019-05-16T14:21:44.073Z,4.93
2019-05-16T14:24:17.834Z,5.07
2019-05-16T14:26:47.134Z,5.40
2019-05-16T14:29:17.972Z,4.73
2019-05-16T14:31:50.764Z,4.53
2019-05-16T14:34:20.180Z,5.30
2019-05-16T14:36:50.747Z,4.93
2019-05-16T14:39:22.615Z,4.63
2019-05-16T14:41:56.802Z,4.97
2019-05-16T14:44:28.641Z,4.37
2019-05-16T14:46:59.263Z,5.03
2019-05-16T14:49:29.037Z,4.90
2019-05-16T14:51:58.626Z,4.60
2019-05-16T14:54:27.934Z,5.03
2019-05-16T14:57:01.096Z,5.47
2019-05-16T14:59:30.863Z,4.60
2019-05-16T15:02:00.867Z,4.73
2019-05-16T15:04:31.300Z,4.77
2019-05-16T15:07:01.683Z,5.10
2019-05-16T15:09:32.176Z,5.27
2019-05-16T15:12:03.633Z,5.47
2019-05-16T15:14:33.943Z,6.10
2019-05-16T15:17:06.848Z,5.90
2019-05-16T15:19:36.409Z,6.23
2019-05-16T15:22:08.063Z,6.60
2019-05-16T15:24:38.874Z,6.87
2019-05-16T15:27:09.268Z,6.50
2019-05-16T15:29:41.279Z,6.50
2019-05-16T15:32:12.068Z,5.63
2019-05-16T15:34:43.548Z,5.60
2019-05-16T15:37:12.952Z,5.43
2019-05-16T15:39:43.413Z,4.20
2019-05-16T15:42:12.888Z,4.03
2019-05-16T15:44:43.283Z,3.93
2019-05-16T15:47:13.805Z,4.10
2019-05-16T15:49:47.672Z,4.60
2019-05-16T15:52:16.844Z,4.13
2019-05-16T15:54:47.992Z,4.10
2019-05-16T15:57:18.455Z,3.40
2019-05-16T15:59:48.018Z,3.40
2019-05-16T16:02:17.695Z,2.77
2019-05-16T16:04:48.236Z,4.20
2019-05-16T16:07:18.248Z,4.17
2019-05-16T16:09:48.790Z,14.13
2019-05-16T16:12:20.177Z,5.27
2019-05-16T16:14:50.665Z,5.67
2019-05-16T16:17:21.169Z,4.93
2019-05-16T16:19:52.617Z,5.80
2019-05-16T16:22:21.921Z,5.07
2019-05-16T16:24:51.276Z,6.63
2019-05-16T16:27:22.001Z,7.57
2019-05-16T16:29:52.471Z,6.00
2019-05-16T16:32:23.078Z,6.77
2019-05-16T16:34:53.498Z,6.67
2019-05-16T16:37:23.992Z,6.73
2019-05-16T16:39:54.610Z,10.80
2019-05-16T16:42:27.184Z,9.30
2019-05-16T16:44:57.314Z,7.90
2019-05-16T16:47:27.714Z,7.03
2019-05-16T16:49:59.321Z,6.63
2019-05-16T16:52:29.981Z,6.70
2019-05-16T16:55:00.276Z,6.33
2019-05-16T16:57:29.763Z,6.40
2019-05-16T17:00:00.867Z,4.40
2019-05-16T17:02:31.291Z,2.73
2019-05-16T17:05:01.957Z,1.73
2019-05-16T17:07:32.617Z,2.13
2019-05-16T17:10:02.028Z,2.30
2019-05-16T17:12:32.487Z,1.83
2019-05-16T17:15:03.131Z,2.10
2019-05-16T17:17:33.613Z,4.23
2019-05-16T17:20:07.527Z,2.93
2019-05-16T17:22:37.879Z,3.27
2019-05-16T17:25:13.081Z,3.50
2019-05-16T17:27:42.443Z,3.90
2019-05-16T17:30:19.011Z,3.60
2019-05-16T17:32:50.737Z,12.87
2019-05-16T17:35:20.565Z,3.70
2019-05-16T17:37:49.539Z,3.80
2019-05-16T17:40:23.037Z,5.10
2019-05-16T17:42:56.850Z,5.00
2019-05-16T17:45:27.196Z,5.10
2019-05-16T17:47:57.188Z,6.70
2019-05-16T17:50:26.808Z,5.10
2019-05-16T17:52:57.825Z,5.40
2019-05-16T17:55:28.620Z,5.60
2019-05-16T17:57:59.946Z,5.50
2019-05-16T18:00:29.193Z,6.30
2019-05-16T18:02:59.209Z,6.20
2019-05-16T18:05:29.910Z,6.70
2019-05-16T18:08:01.257Z,6.37
2019-05-16T18:10:30.617Z,3.30
2019-05-16T18:13:01.022Z,3.00
2019-05-16T18:15:31.950Z,3.20
2019-05-16T18:18:02.461Z,3.83
2019-05-16T18:20:34.329Z,3.50
2019-05-16T18:23:03.845Z,4.10
2019-05-16T18:25:36.429Z,3.30
2019-05-16T18:28:08.113Z,2.90
2019-05-16T18:30:40.651Z,2.77
2019-05-16T18:33:10.050Z,3.63
2019-05-16T18:35:40.535Z,3.60
2019-05-16T18:38:11.030Z,4.00
2019-05-16T18:40:40.823Z,4.53
2019-05-16T18:43:11.546Z,4.47
2019-05-16T18:45:42.259Z,5.10
2019-05-16T18:48:11.761Z,4.60
2019-05-16T18:50:43.999Z,5.00
2019-05-16T18:53:17.814Z,4.60
2019-05-16T18:55:47.657Z,5.77
2019-05-16T18:58:18.269Z,5.50
2019-05-16T19:00:48.870Z,6.17
2019-05-16T19:03:21.248Z,6.03
2019-05-16T19:05:50.755Z,6.57
2019-05-16T19:08:20.510Z,23.17
2019-05-16T19:10:49.974Z,7.07
2019-05-16T19:13:24.544Z,7.00
2019-05-16T19:15:57.069Z,7.80
2019-05-16T19:18:27.133Z,7.43
2019-05-16T19:20:57.107Z,8.13
2019-05-16T19:23:27.732Z,7.70
2019-05-16T19:25:57.179Z,8.20
2019-05-16T19:28:29.104Z,7.40
2019-05-16T19:30:59.679Z,7.90
2019-05-16T19:33:30.526Z,8.97
2019-05-16T19:36:01.115Z,7.93
2019-05-16T19:38:32.976Z,8.60
2019-05-16T19:41:08.056Z,8.67
2019-05-16T19:43:37.196Z,26.57
2019-05-16T19:46:08.208Z,19.47
2019-05-16T19:48:37.592Z,9.50
2019-05-16T19:51:08.405Z,9.30
2019-05-16T19:53:40.338Z,9.37
2019-05-16T19:56:10.838Z,7.83
2019-05-16T19:58:40.207Z,9.33
2019-05-16T20:01:09.558Z,9.87
2019-05-16T20:03:38.968Z,9.53
2019-05-16T20:06:09.543Z,9.47
2019-05-16T20:08:39.950Z,9.70
2019-05-16T20:11:12.538Z,9.30
2019-05-16T20:13:44.092Z,8.67
2019-05-16T20:16:13.616Z,8.80
2019-05-16T20:18:43.085Z,7.73
2019-05-16T20:21:12.507Z,8.07
2019-05-16T20:23:44.436Z,8.17
2019-05-16T20:26:16.722Z,7.67
2019-05-16T20:28:47.454Z,7.57
2019-05-16T20:31:17.174Z,8.50
2019-05-16T20:33:47.051Z,8.90
2019-05-16T20:36:17.394Z,10.07
2019-05-16T20:38:47.941Z,9.70
2019-05-16T20:41:18.826Z,9.33
2019-05-16T20:43:49.482Z,10.87
2019-05-16T20:46:21.047Z,10.90
2019-05-16T20:48:51.468Z,11.10
2019-05-16T20:51:20.972Z,10.60
2019-05-16T20:53:50.509Z,10.30
2019-05-16T20:56:22.871Z,10.57
2019-05-16T20:58:53.394Z,10.77
2019-05-16T21:01:23.888Z,12.03
2019-05-16T21:03:54.305Z,12.30
2019-05-16T21:06:26.505Z,12.93
2019-05-16T21:08:58.160Z,13.03
2019-05-16T21:11:27.607Z,13.33
2019-05-16T21:13:58.235Z,13.30
2019-05-16T21:16:29.977Z,13.87
2019-05-16T21:19:00.527Z,13.47
2019-05-16T21:21:31.419Z,13.70
2019-05-16T21:24:01.820Z,14.73
2019-05-16T21:26:32.435Z,15.50
2019-05-16T21:29:01.842Z,16.27
2019-05-16T21:31:32.724Z,16.47
2019-05-16T21:34:04.114Z,15.90
2019-05-16T21:36:33.471Z,17.50
2019-05-16T21:39:06.413Z,18.80
2019-05-16T21:41:38.437Z,17.90
2019-05-16T21:44:09.144Z,18.97
2019-05-16T21:46:38.539Z,19.00
2019-05-16T21:49:09.011Z,18.70
2019-05-16T21:51:39.669Z,19.20
2019-05-16T21:54:09.723Z,20.17
2019-05-16T21:56:40.226Z,18.77
2019-05-16T21:59:10.804Z,20.00
2019-05-16T22:01:41.189Z,18.50
2019-05-16T22:04:09.746Z,19.47
2019-05-16T22:06:38.551Z,19.43
2019-05-16T22:09:09.233Z,19.10
2019-05-16T22:11:37.749Z,19.43
2019-05-16T22:14:08.575Z,19.63
2019-05-16T22:16:38.360Z,20.53
2019-05-16T22:19:10.429Z,19.50
2019-05-16T22:21:43.138Z,20.37
2019-05-16T22:24:13.956Z,20.43
2019-05-16T22:26:46.527Z,20.00
2019-05-16T22:29:17.141Z,19.00
2019-05-16T22:31:47.576Z,20.53
2019-05-16T22:34:18.085Z,21.37
2019-05-16T22:36:49.384Z,21.83
2019-05-16T22:39:21.508Z,23.00
2019-05-16T22:41:54.210Z,22.37
2019-05-16T22:44:27.092Z,23.10
2019-05-16T22:46:56.629Z,24.50
2019-05-16T22:49:27.531Z,24.47
2019-05-16T22:51:58.130Z,23.13
2019-05-16T22:54:27.538Z,24.77
2019-05-16T22:56:57.285Z,24.37
2019-05-16T22:59:27.208Z,25.90
2019-05-16T23:01:56.984Z,23.80
2019-05-16T23:04:27.344Z,25.87
2019-05-16T23:06:56.847Z,24.67
2019-05-16T23:09:27.095Z,24.97
2019-05-16T23:11:56.525Z,24.87
2019-05-16T23:14:26.766Z,26.40
2019-05-16T23:16:57.529Z,25.00
2019-05-16T23:19:28.102Z,25.80
2019-05-16T23:21:58.615Z,24.87
2019-05-16T23:24:29.013Z,25.23
2019-05-16T23:26:58.438Z,26.17
2019-05-16T23:29:28.719Z,26.00
2019-05-16T23:31:59.187Z,28.67
2019-05-16T23:34:29.800Z,27.97
2019-05-16T23:36:59.173Z,27.10
2019-05-16T23:39:29.793Z,25.23
2019-05-16T23:41:59.143Z,24.47
2019-05-16T23:44:28.539Z,23.73
2019-05-16T23:46:58.831Z,23.60
2019-05-16T23:49:28.276Z,22.93
2019-05-16T23:51:58.672Z,22.47
2019-05-16T23:54:29.302Z,23.00
2019-05-16T23:57:01.377Z,22.33
2019-05-16T23:59:31.881Z,21.77
